Time;durP1;ratioP1;P1;durP2;ratioP2;P2;SDS_P1;SDS_P2;PMS_P1;PMS_P2;Temp;Humidity;BMP_temperature;BMP_pressure;BME280_temperature;BME280_humidity;BME280_pressure;Samples;Min_cycle;Max_cycle;Signal;HPM_P1;HPM_P2
2022/06/28 00:01:50;;;;;;;9.67;8.37;;;;;;;;;;5314137;27;20266;-80
2022/06/28 00:04:21;;;;;;;9.48;8.57;;;;;;;;;;5331490;27;20391;-79
2022/06/28 00:06:53;;;;;;;9.83;8.77;;;;;;;;;;5325420;27;20036;-80
2022/06/28 00:09:24;;;;;;;12.13;9.50;;;;;;;;;;5305649;28;20300;-80
2022/06/28 00:11:56;;;;;;;10.63;9.45;;;;;;;;;;5324543;28;20055;-80
2022/06/28 00:17:17;;;;;;;10.90;9.25;;;;;;;;;;5325441;28;20262;-80
2022/06/28 00:19:48;;;;;;;11.70;10.60;;;;;;;;;;5312161;28;20514;-80
2022/06/28 00:22:19;;;;;;;10.73;9.67;;;;;;;;;;5325098;28;20028;-80
2022/06/28 00:24:51;;;;;;;10.45;9.38;;;;;;;;;;5323272;28;20743;-80
2022/06/28 00:27:22;;;;;;;9.83;8.83;;;;;;;;;;5320886;28;20037;-80
2022/06/28 00:29:53;;;;;;;10.10;9.10;;;;;;;;;;5303366;28;20270;-80
2022/06/28 00:32:24;;;;;;;11.20;8.43;;;;;;;;;;5312085;28;20032;-79
2022/06/28 00:34:55;;;;;;;10.00;8.98;;;;;;;;;;5334923;27;20730;-80
2022/06/28 00:37:27;;;;;;;10.00;9.02;;;;;;;;;;5324707;27;20123;-80
2022/06/28 00:39:58;;;;;;;12.63;9.63;;;;;;;;;;5302207;28;20012;-80
2022/06/28 00:42:30;;;;;;;10.03;9.03;;;;;;;;;;5303458;28;20072;-80
2022/06/28 00:45:01;;;;;;;11.55;10.00;;;;;;;;;;5303947;28;20270;-80
2022/06/28 00:47:33;;;;;;;14.30;9.70;;;;;;;;;;5303212;28;20036;-80
2022/06/28 00:50:04;;;;;;;12.50;11.20;;;;;;;;;;5315473;27;20074;-80
2022/06/28 00:52:36;;;;;;;12.23;11.02;;;;;;;;;;5301520;27;20028;-80
2022/06/28 00:55:07;;;;;;;13.63;11.82;;;;;;;;;;5333771;27;20025;-80
2022/06/28 00:57:38;;;;;;;13.13;11.77;;;;;;;;;;5324870;28;20028;-80
2022/06/28 01:00:10;;;;;;;13.47;10.40;;;;;;;;;;5324073;28;20061;-80
2022/06/28 01:02:41;;;;;;;13.95;11.23;;;;;;;;;;5322635;28;20285;-80
2022/06/28 01:05:12;;;;;;;12.87;11.57;;;;;;;;;;5323284;27;20380;-80
2022/06/28 01:07:44;;;;;;;16.10;12.13;;;;;;;;;;5324342;28;20274;-80
2022/06/28 01:10:15;;;;;;;15.45;11.88;;;;;;;;;;5332661;27;20019;-80
2022/06/28 01:12:46;;;;;;;13.30;10.90;;;;;;;;;;5303642;28;20125;-80
2022/06/28 01:15:17;;;;;;;13.20;11.80;;;;;;;;;;5302960;27;20725;-80
2022/06/28 01:17:49;;;;;;;12.13;10.27;;;;;;;;;;5303799;28;20271;-80
2022/06/28 01:20:20;;;;;;;16.45;11.23;;;;;;;;;;5319684;27;20024;-80
2022/06/28 01:22:55;;;;;;;10.82;9.48;;;;;;;;;;5327859;28;20522;-79
2022/06/28 01:25:26;;;;;;;12.88;9.82;;;;;;;;;;5326856;27;20050;-80
2022/06/28 01:27:57;;;;;;;12.35;9.98;;;;;;;;;;5327937;27;20032;-80
2022/06/28 01:30:28;;;;;;;13.45;10.77;;;;;;;;;;5308866;28;20028;-81
2022/06/28 01:33:01;;;;;;;11.68;10.48;;;;;;;;;;5302267;28;20032;-80
2022/06/28 01:35:33;;;;;;;14.40;11.10;;;;;;;;;;5332153;27;20484;-80
2022/06/28 01:38:05;;;;;;;13.63;10.93;;;;;;;;;;5316911;28;20046;-80
2022/06/28 01:40:36;;;;;;;11.98;10.73;;;;;;;;;;5316554;28;20039;-79
2022/06/28 01:43:07;;;;;;;12.20;10.63;;;;;;;;;;5319532;28;20028;-81
2022/06/28 01:45:40;;;;;;;13.70;11.10;;;;;;;;;;5329374;27;20077;-80
2022/06/28 01:48:11;;;;;;;13.20;10.52;;;;;;;;;;5330340;28;20034;-80
2022/06/28 01:50:42;;;;;;;13.32;10.55;;;;;;;;;;5328873;28;20036;-80
2022/06/28 01:53:14;;;;;;;12.43;10.87;;;;;;;;;;5326241;28;20103;-80
2022/06/28 01:55:45;;;;;;;11.68;9.57;;;;;;;;;;5320712;28;20437;-80
2022/06/28 01:58:16;;;;;;;13.27;11.30;;;;;;;;;;5319606;27;20755;-80
2022/06/28 02:00:47;;;;;;;13.88;10.57;;;;;;;;;;5305164;27;20305;-80
2022/06/28 02:03:18;;;;;;;11.10;9.98;;;;;;;;;;5293243;28;20039;-80
2022/06/28 02:05:50;;;;;;;12.40;9.83;;;;;;;;;;5314148;27;20028;-80
2022/06/28 02:08:21;;;;;;;14.33;10.77;;;;;;;;;;5299450;28;20239;-80
2022/06/28 02:10:56;;;;;;;13.57;9.85;;;;;;;;;;5312333;28;20417;-80
2022/06/28 02:13:27;;;;;;;12.73;10.18;;;;;;;;;;5292289;27;20127;-80
2022/06/28 02:15:58;;;;;;;12.68;10.38;;;;;;;;;;5312588;28;20158;-80
2022/06/28 02:18:31;;;;;;;13.70;10.32;;;;;;;;;;5332704;27;20032;-79
2022/06/28 02:21:02;;;;;;;12.20;10.93;;;;;;;;;;5314270;28;20028;-80
2022/06/28 02:23:33;;;;;;;12.75;9.88;;;;;;;;;;5316913;27;20032;-79
2022/06/28 02:26:04;;;;;;;12.93;10.93;;;;;;;;;;5314142;28;20098;-80
2022/06/28 02:28:35;;;;;;;12.93;11.48;;;;;;;;;;5315933;28;20282;-80
2022/06/28 02:31:10;;;;;;;15.77;10.55;;;;;;;;;;5314972;28;20036;-80
2022/06/28 02:33:42;;;;;;;15.52;10.40;;;;;;;;;;5313600;28;20103;-80
2022/06/28 02:41:41;;;;;;;16.00;10.32;;;;;;;;;;5313942;27;20453;-81
2022/06/28 02:44:12;;;;;;;13.88;10.88;;;;;;;;;;5311883;28;20149;-80
2022/06/28 02:46:44;;;;;;;16.02;10.30;;;;;;;;;;5312100;28;20477;-80
2022/06/28 02:49:15;;;;;;;13.32;10.68;;;;;;;;;;5316465;28;20032;-80
2022/06/28 02:51:47;;;;;;;18.25;10.18;;;;;;;;;;5322390;27;20043;-79
2022/06/28 02:54:18;;;;;;;10.50;9.40;;;;;;;;;;5314746;27;20028;-80
2022/06/28 02:56:49;;;;;;;11.00;9.73;;;;;;;;;;5317343;28;20270;-80
2022/06/28 02:59:20;;;;;;;12.40;8.47;;;;;;;;;;5293779;28;20441;-80
2022/06/28 03:01:51;;;;;;;14.83;9.10;;;;;;;;;;5310768;28;20506;-79
2022/06/28 03:04:22;;;;;;;10.97;8.90;;;;;;;;;;5309351;27;20482;-80
2022/06/28 03:06:54;;;;;;;11.13;8.63;;;;;;;;;;5298397;28;20282;-80
2022/06/28 03:09:25;;;;;;;9.97;7.73;;;;;;;;;;5312941;28;20298;-80
2022/06/28 03:11:56;;;;;;;10.13;9.00;;;;;;;;;;5289028;28;20283;-81
2022/06/28 03:14:27;;;;;;;16.30;8.65;;;;;;;;;;5291292;28;20020;-80
2022/06/28 03:16:59;;;;;;;13.43;8.70;;;;;;;;;;5296636;28;20446;-80
2022/06/28 03:19:30;;;;;;;11.75;8.43;;;;;;;;;;5311432;27;20175;-81
2022/06/28 03:22:01;;;;;;;12.55;9.27;;;;;;;;;;5313572;28;20024;-80
2022/06/28 03:24:32;;;;;;;11.20;8.63;;;;;;;;;;5314462;28;20391;-80
2022/06/28 03:27:04;;;;;;;10.48;8.63;;;;;;;;;;5315504;28;20104;-80
2022/06/28 03:29:35;;;;;;;10.95;8.82;;;;;;;;;;5315345;27;20033;-80
2022/06/28 03:32:07;;;;;;;11.32;8.40;;;;;;;;;;5315826;28;20039;-80
2022/06/28 03:34:38;;;;;;;13.02;9.15;;;;;;;;;;5308480;28;20348;-80
2022/06/28 03:37:09;;;;;;;14.67;8.70;;;;;;;;;;5315920;28;20031;-80
2022/06/28 03:39:40;;;;;;;10.83;8.10;;;;;;;;;;5322492;27;20290;-80
2022/06/28 03:42:11;;;;;;;10.27;8.20;;;;;;;;;;5308373;28;20290;-80
2022/06/28 03:44:43;;;;;;;10.03;7.87;;;;;;;;;;5292495;28;20476;-80
2022/06/28 03:47:14;;;;;;;14.27;9.90;;;;;;;;;;5292986;28;20285;-80
2022/06/28 03:49:47;;;;;;;12.60;9.03;;;;;;;;;;5312428;28;20055;-80
2022/06/28 03:52:18;;;;;;;9.63;8.63;;;;;;;;;;5313836;28;20258;-80
2022/06/28 03:54:50;;;;;;;14.18;8.05;;;;;;;;;;5300006;28;20023;-80
2022/06/28 03:57:21;;;;;;;11.65;7.97;;;;;;;;;;5319150;27;20472;-80
2022/06/28 03:59:56;;;;;;;13.57;7.85;;;;;;;;;;5316918;27;20031;-79
2022/06/28 04:02:27;;;;;;;12.48;8.23;;;;;;;;;;5297550;28;20469;-79
2022/06/28 04:04:58;;;;;;;9.67;8.00;;;;;;;;;;5319490;28;20144;-79
2022/06/28 04:07:29;;;;;;;9.83;7.50;;;;;;;;;;5323838;28;20036;-79
2022/06/28 04:10:00;;;;;;;12.80;7.80;;;;;;;;;;5331997;28;20266;-80
2022/06/28 04:12:32;;;;;;;9.98;6.22;;;;;;;;;;5330140;27;20065;-80
2022/06/28 04:15:03;;;;;;;10.83;7.00;;;;;;;;;;5332617;27;20032;-80
2022/06/28 04:17:34;;;;;;;11.38;6.82;;;;;;;;;;5309004;27;20607;-80
2022/06/28 04:20:05;;;;;;;11.50;7.13;;;;;;;;;;5294709;28;20141;-80
2022/06/28 04:22:37;;;;;;;9.48;6.22;;;;;;;;;;5315177;28;20270;-79
2022/06/28 04:25:08;;;;;;;12.70;6.60;;;;;;;;;;5323634;28;20032;-81
2022/06/28 04:27:39;;;;;;;9.07;6.25;;;;;;;;;;5324482;27;20342;-79
2022/06/28 04:30:11;;;;;;;12.65;6.20;;;;;;;;;;5329510;27;20478;-80
2022/06/28 04:32:42;;;;;;;11.50;6.13;;;;;;;;;;5316524;28;20093;-80
2022/06/28 04:35:13;;;;;;;10.32;5.97;;;;;;;;;;5299331;28;20020;-80
2022/06/28 04:37:44;;;;;;;9.17;5.47;;;;;;;;;;5318179;27;20032;-80
2022/06/28 04:40:16;;;;;;;9.98;5.72;;;;;;;;;;5317206;28;20283;-79
2022/06/28 04:42:47;;;;;;;14.63;5.97;;;;;;;;;;5315750;27;20143;-80
2022/06/28 04:45:18;;;;;;;8.90;5.10;;;;;;;;;;5314735;28;20262;-80
2022/06/28 04:47:49;;;;;;;8.75;5.18;;;;;;;;;;5315029;28;20679;-80
2022/06/28 04:50:20;;;;;;;13.07;5.57;;;;;;;;;;5312313;27;20044;-80
2022/06/28 04:52:52;;;;;;;8.77;5.20;;;;;;;;;;5314429;27;20267;-79
2022/06/28 04:55:23;;;;;;;14.32;5.10;;;;;;;;;;5294218;28;20392;-80
2022/06/28 04:57:54;;;;;;;10.57;4.97;;;;;;;;;;5320447;27;20032;-80
2022/06/28 05:00:27;;;;;;;10.77;4.88;;;;;;;;;;5318637;28;20024;-80
2022/06/28 05:02:58;;;;;;;11.90;4.47;;;;;;;;;;5296284;27;20040;-80
2022/06/28 05:05:29;;;;;;;7.27;5.27;;;;;;;;;;5291117;28;20070;-80
2022/06/28 05:08:00;;;;;;;7.43;4.30;;;;;;;;;;5332482;27;20282;-80
2022/06/28 05:10:32;;;;;;;9.15;4.90;;;;;;;;;;5333343;27;20365;-80
2022/06/28 05:13:03;;;;;;;12.63;5.10;;;;;;;;;;5319305;28;20028;-80
2022/06/28 05:15:34;;;;;;;10.17;4.50;;;;;;;;;;5297150;28;20713;-80
2022/06/28 05:18:05;;;;;;;10.98;4.40;;;;;;;;;;5319577;27;20277;-81
2022/06/28 05:20:37;;;;;;;10.70;5.47;;;;;;;;;;5318844;28;20450;-80
2022/06/28 05:23:08;;;;;;;15.77;4.43;;;;;;;;;;5295575;27;20028;-81
2022/06/28 05:25:39;;;;;;;9.17;3.50;;;;;;;;;;5319958;28;20138;-81
2022/06/28 05:28:10;;;;;;;6.63;3.53;;;;;;;;;;5318228;27;20499;-81
2022/06/28 05:30:41;;;;;;;9.97;3.70;;;;;;;;;;5335232;27;20293;-81
2022/06/28 05:33:13;;;;;;;9.03;3.27;;;;;;;;;;5297318;27;20127;-81
2022/06/28 05:35:44;;;;;;;6.07;2.85;;;;;;;;;;5317231;28;20286;-81
2022/06/28 05:38:15;;;;;;;10.07;2.90;;;;;;;;;;5294572;27;20097;-81
2022/06/28 05:40:46;;;;;;;8.35;2.72;;;;;;;;;;5291059;27;20312;-81
2022/06/28 05:43:18;;;;;;;6.63;2.90;;;;;;;;;;5312643;27;21248;-81
2022/06/28 05:45:49;;;;;;;12.48;3.25;;;;;;;;;;5312876;27;20290;-81
2022/06/28 05:48:20;;;;;;;7.77;2.70;;;;;;;;;;5294981;27;20028;-81
2022/06/28 05:50:52;;;;;;;7.07;2.93;;;;;;;;;;5298232;27;20124;-81
2022/06/28 05:53:23;;;;;;;6.60;2.35;;;;;;;;;;5335413;27;20281;-81
2022/06/28 05:55:54;;;;;;;8.97;2.53;;;;;;;;;;5311626;27;20032;-81
2022/06/28 05:58:25;;;;;;;10.15;2.30;;;;;;;;;;5318062;27;20283;-81
2022/06/28 06:00:56;;;;;;;9.07;2.80;;;;;;;;;;5320645;27;20403;-81
2022/06/28 06:03:28;;;;;;;8.50;2.50;;;;;;;;;;5319630;27;20282;-81
2022/06/28 06:05:59;;;;;;;7.63;3.07;;;;;;;;;;5322007;27;20020;-81
2022/06/28 06:08:30;;;;;;;10.18;3.10;;;;;;;;;;5314408;27;20027;-81
2022/06/28 06:11:07;;;;;;;10.73;3.08;;;;;;;;;;5316665;27;20055;-81
2022/06/28 06:13:38;;;;;;;8.23;3.28;;;;;;;;;;5306493;27;20059;-80
2022/06/28 06:16:09;;;;;;;9.13;2.60;;;;;;;;;;5318214;27;20052;-81
2022/06/28 06:18:40;;;;;;;10.43;3.80;;;;;;;;;;5314542;27;20032;-81
2022/06/28 06:21:12;;;;;;;8.90;2.65;;;;;;;;;;5319854;27;20099;-81
2022/06/28 06:23:43;;;;;;;8.20;2.63;;;;;;;;;;5297173;27;20350;-80
2022/06/28 06:26:14;;;;;;;10.33;2.80;;;;;;;;;;5312815;27;20028;-80
2022/06/28 06:28:45;;;;;;;12.03;2.20;;;;;;;;;;5313920;27;20043;-78
2022/06/28 06:31:16;;;;;;;12.40;2.67;;;;;;;;;;5310230;28;20841;-79
2022/06/28 06:33:48;;;;;;;8.75;2.90;;;;;;;;;;5326217;28;20262;-79
2022/06/28 06:36:21;;;;;;;8.02;2.20;;;;;;;;;;5312611;27;20487;-78
2022/06/28 06:38:54;;;;;;;10.55;2.75;;;;;;;;;;5325962;28;20052;-79
2022/06/28 06:41:25;;;;;;;8.35;2.35;;;;;;;;;;5307702;28;20135;-78
2022/06/28 06:43:56;;;;;;;9.23;2.37;;;;;;;;;;5326227;28;20024;-79
2022/06/28 06:46:28;;;;;;;10.03;2.73;;;;;;;;;;5326166;28;20063;-79
2022/06/28 06:48:59;;;;;;;9.53;2.50;;;;;;;;;;5340930;27;20024;-78
2022/06/28 06:51:30;;;;;;;12.63;3.03;;;;;;;;;;5326416;28;20293;-79
2022/06/28 06:54:02;;;;;;;10.27;2.63;;;;;;;;;;5324370;27;20022;-79
2022/06/28 06:56:33;;;;;;;10.05;2.45;;;;;;;;;;5286481;28;20037;-79
2022/06/28 06:59:04;;;;;;;12.13;2.25;;;;;;;;;;5305675;27;20420;-79
2022/06/28 07:01:36;;;;;;;6.43;2.22;;;;;;;;;;5306186;27;20411;-79
2022/06/28 07:04:08;;;;;;;10.35;2.10;;;;;;;;;;5304919;28;20032;-79
2022/06/28 07:06:39;;;;;;;8.48;2.15;;;;;;;;;;5305017;28;20033;-79
2022/06/28 07:09:10;;;;;;;5.70;2.10;;;;;;;;;;5286583;28;20476;-79
2022/06/28 07:11:42;;;;;;;9.43;1.80;;;;;;;;;;5287504;28;20024;-79
2022/06/28 07:14:13;;;;;;;10.30;2.25;;;;;;;;;;5309427;27;20028;-79
2022/06/28 07:16:45;;;;;;;6.17;1.80;;;;;;;;;;5326179;28;20035;-79
2022/06/28 07:19:16;;;;;;;7.93;2.13;;;;;;;;;;5326172;27;20085;-79
2022/06/28 07:21:48;;;;;;;6.40;2.00;;;;;;;;;;5309496;28;20395;-79
2022/06/28 07:24:19;;;;;;;8.47;2.40;;;;;;;;;;5325632;28;20020;-79
2022/06/28 07:26:50;;;;;;;8.30;2.08;;;;;;;;;;5325833;27;20794;-80
2022/06/28 07:29:21;;;;;;;9.30;2.47;;;;;;;;;;5324199;27;20382;-79
2022/06/28 07:31:53;;;;;;;7.63;1.90;;;;;;;;;;5325739;28;20336;-79
2022/06/28 07:34:24;;;;;;;5.13;1.80;;;;;;;;;;5306853;28;20389;-80
2022/06/28 07:36:55;;;;;;;8.30;2.17;;;;;;;;;;5325394;28;20432;-79
2022/06/28 07:39:26;;;;;;;5.28;1.70;;;;;;;;;;5325326;28;20036;-80
2022/06/28 07:41:58;;;;;;;7.10;2.20;;;;;;;;;;5324069;27;20032;-80
2022/06/28 07:44:29;;;;;;;7.35;1.80;;;;;;;;;;5340428;27;20698;-80
2022/06/28 07:47:00;;;;;;;6.65;1.50;;;;;;;;;;5325460;28;20030;-80
2022/06/28 07:52:34;;;;;;;5.50;1.98;;;;;;;;;;5325019;28;20099;-80
2022/06/28 07:55:06;;;;;;;7.68;1.92;;;;;;;;;;5324163;28;20107;-80
2022/06/28 07:57:38;;;;;;;6.25;1.50;;;;;;;;;;5323044;28;20381;-80
2022/06/28 08:00:09;;;;;;;7.70;2.08;;;;;;;;;;5306580;28;20032;-80
2022/06/28 08:02:40;;;;;;;4.05;1.48;;;;;;;;;;5324655;28;20093;-80
2022/06/28 08:05:12;;;;;;;5.97;1.73;;;;;;;;;;5323502;28;20016;-80
2022/06/28 08:07:43;;;;;;;7.10;2.20;;;;;;;;;;5324923;28;20023;-80
2022/06/28 08:10:14;;;;;;;3.97;1.80;;;;;;;;;;5325095;28;20472;-80
2022/06/28 08:12:45;;;;;;;6.80;1.92;;;;;;;;;;5324722;28;20043;-80
2022/06/28 08:15:16;;;;;;;6.97;1.83;;;;;;;;;;5324143;28;20486;-80
2022/06/28 08:17:48;;;;;;;6.33;1.53;;;;;;;;;;5324714;27;20477;-80
2022/06/28 08:20:19;;;;;;;6.97;1.80;;;;;;;;;;5322883;28;20099;-80
2022/06/28 08:22:50;;;;;;;4.37;1.40;;;;;;;;;;5324800;28;20136;-80
2022/06/28 08:25:21;;;;;;;5.80;1.77;;;;;;;;;;5305976;28;20784;-80
2022/06/28 08:27:53;;;;;;;6.03;1.70;;;;;;;;;;5325199;28;20090;-80
2022/06/28 08:30:25;;;;;;;6.25;1.63;;;;;;;;;;5307689;28;20094;-80
2022/06/28 08:32:56;;;;;;;5.25;1.65;;;;;;;;;;5309293;28;20437;-80
2022/06/28 08:35:28;;;;;;;5.20;1.60;;;;;;;;;;5313294;28;20081;-80
2022/06/28 08:37:59;;;;;;;5.72;1.42;;;;;;;;;;5331688;28;20036;-80
2022/06/28 08:40:31;;;;;;;5.18;1.30;;;;;;;;;;5312578;28;20186;-80
2022/06/28 08:43:04;;;;;;;3.55;1.27;;;;;;;;;;5331547;28;20028;-80
2022/06/28 08:45:36;;;;;;;6.55;1.23;;;;;;;;;;5331301;27;20386;-80
2022/06/28 08:48:13;;;;;;;4.03;1.20;;;;;;;;;;5328278;28;20027;-80
2022/06/28 08:50:46;;;;;;;3.97;1.02;;;;;;;;;;5328199;27;20064;-80
2022/06/28 08:53:18;;;;;;;6.07;1.17;;;;;;;;;;5312184;28;20028;-80
2022/06/28 08:55:50;;;;;;;3.45;1.15;;;;;;;;;;5314673;27;20350;-80
2022/06/28 08:58:22;;;;;;;4.97;1.42;;;;;;;;;;5310120;28;20040;-80
2022/06/28 09:00:53;;;;;;;7.40;1.60;;;;;;;;;;5309338;28;20016;-80
2022/06/28 09:03:24;;;;;;;5.50;1.38;;;;;;;;;;5327163;27;20059;-81
2022/06/28 09:05:56;;;;;;;4.53;1.53;;;;;;;;;;5331382;28;20024;-81
2022/06/28 09:08:27;;;;;;;4.67;1.00;;;;;;;;;;5331773;28;20034;-80
2022/06/28 09:10:58;;;;;;;5.63;1.30;;;;;;;;;;5331353;28;20858;-80
2022/06/28 09:13:29;;;;;;;3.80;1.00;;;;;;;;;;5303075;28;20496;-80
2022/06/28 09:16:02;;;;;;;3.07;1.00;;;;;;;;;;5309713;28;20033;-80
2022/06/28 09:18:33;;;;;;;4.55;1.20;;;;;;;;;;5310043;28;20058;-80
2022/06/28 09:21:06;;;;;;;4.27;1.20;;;;;;;;;;5309513;28;20024;-80
2022/06/28 09:23:39;;;;;;;4.65;1.05;;;;;;;;;;5291845;28;20032;-80
2022/06/28 09:26:17;;;;;;;3.65;1.20;;;;;;;;;;5310265;27;20029;-80
2022/06/28 09:28:49;;;;;;;3.55;0.77;;;;;;;;;;5291127;28;20036;-80
2022/06/28 09:31:22;;;;;;;3.33;1.00;;;;;;;;;;5309810;28;20016;-81
2022/06/28 09:33:59;;;;;;;7.40;1.45;;;;;;;;;;5309673;28;20362;-80
2022/06/28 09:36:41;;;;;;;5.78;1.20;;;;;;;;;;5310133;27;20051;-81
2022/06/28 09:39:17;;;;;;;5.30;0.88;;;;;;;;;;5301272;28;20070;-80
2022/06/28 09:41:50;;;;;;;6.22;1.30;;;;;;;;;;5308787;28;20032;-81
2022/06/28 09:44:25;;;;;;;3.72;1.02;;;;;;;;;;5314959;27;20028;-80
2022/06/28 09:46:57;;;;;;;;;;;;;;;;;;5328012;28;20545;-81
2022/06/28 09:49:29;;;;;;;4.18;1.02;;;;;;;;;;5327321;28;20298;-81
2022/06/28 09:52:01;;;;;;;3.38;1.10;;;;;;;;;;5300165;28;20041;-80
2022/06/28 09:54:34;;;;;;;2.08;0.80;;;;;;;;;;5322298;27;20028;-81
2022/06/28 09:57:06;;;;;;;3.03;0.70;;;;;;;;;;5310162;28;20024;-80
2022/06/28 09:59:38;;;;;;;3.30;1.00;;;;;;;;;;5328935;28;20132;-80
2022/06/28 10:02:12;;;;;;;2.10;0.90;;;;;;;;;;5311363;28;20016;-80
2022/06/28 10:04:46;;;;;;;3.67;1.00;;;;;;;;;;5313143;28;20027;-80
2022/06/28 10:07:18;;;;;;;3.60;1.20;;;;;;;;;;5325078;27;20031;-81
2022/06/28 10:09:49;;;;;;;3.92;0.90;;;;;;;;;;5349904;27;20027;-80
2022/06/28 10:15:10;;;;;;;4.55;1.30;;;;;;;;;;5347807;27;20111;-81
2022/06/28 10:17:50;;;;;;;3.73;1.07;;;;;;;;;;5306707;27;20108;-81
2022/06/28 10:20:23;;;;;;;5.63;1.48;;;;;;;;;;5305222;28;20267;-81
2022/06/28 10:23:13;;;;;;;5.45;1.38;;;;;;;;;;5304309;28;20020;-81
2022/06/28 10:25:59;;;;;;;2.78;0.95;;;;;;;;;;5305351;28;20116;-81
2022/06/28 10:28:35;;;;;;;3.53;0.90;;;;;;;;;;5305312;28;20396;-81
2022/06/28 10:31:24;;;;;;;4.30;1.10;;;;;;;;;;5306698;28;20533;-81
2022/06/28 10:33:57;;;;;;;4.07;1.10;;;;;;;;;;5341868;27;20028;-81
2022/06/28 10:36:40;;;;;;;4.68;0.90;;;;;;;;;;5326438;28;20040;-81
2022/06/28 10:39:13;;;;;;;4.85;1.35;;;;;;;;;;5326295;28;20115;-80
2022/06/28 10:41:45;;;;;;;4.22;0.93;;;;;;;;;;5326863;28;20460;-81
2022/06/28 10:44:26;;;;;;;4.70;1.25;;;;;;;;;;5293800;27;20039;-81
2022/06/28 10:47:00;;;;;;;2.25;1.02;;;;;;;;;;5325957;28;20111;-81
2022/06/28 10:49:48;;;;;;;2.42;1.00;;;;;;;;;;5341425;27;20111;-81
2022/06/28 10:52:23;;;;;;;3.65;1.00;;;;;;;;;;5341453;27;20044;-81
2022/06/28 10:54:54;;;;;;;3.75;1.23;;;;;;;;;;5327624;27;20461;-81
2022/06/28 10:57:39;;;;;;;6.57;1.00;;;;;;;;;;5326341;28;20043;-81
2022/06/28 11:00:21;;;;;;;2.42;0.90;;;;;;;;;;5306679;28;20044;-81
2022/06/28 11:02:52;;;;;;;3.53;0.75;;;;;;;;;;5327058;28;20377;-81
2022/06/28 11:05:42;;;;;;;3.00;0.90;;;;;;;;;;5326903;28;20024;-81
2022/06/28 11:08:21;;;;;;;3.90;0.73;;;;;;;;;;5291453;27;20031;-80
2022/06/28 11:11:02;;;;;;;2.90;0.90;;;;;;;;;;5305125;28;20066;-81
2022/06/28 11:13:34;;;;;;;1.80;0.70;;;;;;;;;;5286707;28;20163;-81
2022/06/28 11:16:05;;;;;;;2.30;0.80;;;;;;;;;;5286930;28;20520;-81
2022/06/28 11:18:36;;;;;;;6.75;0.98;;;;;;;;;;5291889;27;20135;-81
2022/06/28 11:21:07;;;;;;;6.63;1.45;;;;;;;;;;5325924;28;20051;-81
2022/06/28 11:23:40;;;;;;;4.63;1.00;;;;;;;;;;5307322;28;20384;-80
2022/06/28 11:29:09;;;;;;;2.70;0.60;;;;;;;;;;5278352;28;20139;-80
2022/06/28 11:31:41;;;;;;;2.77;0.83;;;;;;;;;;5304808;28;20096;-80
2022/06/28 11:34:13;;;;;;;3.03;1.00;;;;;;;;;;5304531;28;20048;-81
2022/06/28 11:36:44;;;;;;;3.90;0.80;;;;;;;;;;5304450;28;20373;-81
2022/06/28 11:39:19;;;;;;;3.65;0.73;;;;;;;;;;5303847;28;20036;-81
2022/06/28 11:41:54;;;;;;;4.68;0.73;;;;;;;;;;5339856;27;20543;-80
2022/06/28 11:44:25;;;;;;;;;;;;;;;;;;5317503;28;20043;-81
2022/06/28 11:46:56;;;;;;;4.78;0.90;;;;;;;;;;5325396;28;19920;-80
2022/06/28 11:49:29;;;;;;;3.63;1.02;;;;;;;;;;5341215;27;20460;-80
2022/06/28 11:52:00;;;;;;;3.92;1.00;;;;;;;;;;5306034;28;20128;-81
2022/06/28 11:54:31;;;;;;;5.00;0.70;;;;;;;;;;5324786;27;20043;-80
2022/06/28 11:57:13;;;;;;;5.73;1.00;;;;;;;;;;5305859;28;20357;-80
2022/06/28 11:59:51;;;;;;;3.10;0.85;;;;;;;;;;5324374;28;20425;-80
2022/06/28 12:02:42;;;;;;;6.85;1.10;;;;;;;;;;5324748;28;20028;-80
2022/06/28 12:05:13;;;;;;;4.55;0.98;;;;;;;;;;5328834;27;20514;-80
2022/06/28 12:07:45;;;;;;;2.97;1.00;;;;;;;;;;5323910;27;20035;-80
2022/06/28 12:10:20;;;;;;;2.77;1.00;;;;;;;;;;5346547;27;20130;-81
2022/06/28 12:12:52;;;;;;;4.22;0.93;;;;;;;;;;5345907;27;20019;-80
2022/06/28 12:15:31;;;;;;;6.07;1.20;;;;;;;;;;5342274;27;20033;-81
2022/06/28 12:18:04;;;;;;;3.15;0.98;;;;;;;;;;5322351;27;20024;-80
2022/06/28 12:20:36;;;;;;;2.40;0.90;;;;;;;;;;5301954;28;20078;-80
2022/06/28 12:23:07;;;;;;;4.57;0.88;;;;;;;;;;5324848;28;20055;-80
2022/06/28 12:25:38;;;;;;;2.97;0.95;;;;;;;;;;5323521;27;20028;-80
2022/06/28 12:28:09;;;;;;;3.40;1.17;;;;;;;;;;5323357;27;20450;-80
2022/06/28 12:30:41;;;;;;;2.30;0.67;;;;;;;;;;5315779;27;20632;-80
2022/06/28 12:33:12;;;;;;;3.07;0.90;;;;;;;;;;5304968;28;20853;-80
2022/06/28 12:35:43;;;;;;;4.20;0.90;;;;;;;;;;5302882;27;20029;-80
2022/06/28 12:38:14;;;;;;;2.53;0.80;;;;;;;;;;5325635;28;20020;-80
2022/06/28 12:40:45;;;;;;;2.87;0.50;;;;;;;;;;5327042;27;20052;-80
2022/06/28 12:43:17;;;;;;;4.13;1.00;;;;;;;;;;5307263;27;20370;-80
2022/06/28 12:45:48;;;;;;;5.43;0.90;;;;;;;;;;5308406;28;20616;-79
2022/06/28 12:48:19;;;;;;;3.20;0.80;;;;;;;;;;5327320;27;20024;-79
2022/06/28 12:50:51;;;;;;;3.97;1.00;;;;;;;;;;5316485;28;20040;-80
2022/06/28 12:53:22;;;;;;;5.75;1.15;;;;;;;;;;5335087;28;20027;-79
2022/06/28 12:55:53;;;;;;;1.63;0.60;;;;;;;;;;5336170;27;20019;-78
2022/06/28 12:58:24;;;;;;;3.53;0.87;;;;;;;;;;5331592;27;20028;-79
2022/06/28 13:00:58;;;;;;;1.43;0.70;;;;;;;;;;5318799;28;20024;-80
2022/06/28 13:03:29;;;;;;;2.15;0.80;;;;;;;;;;5334637;27;20466;-80
2022/06/28 13:06:00;;;;;;;6.07;1.07;;;;;;;;;;5322562;27;20119;-80
2022/06/28 13:08:32;;;;;;;2.30;0.80;;;;;;;;;;5303019;28;20095;-80
2022/06/28 13:11:03;;;;;;;3.20;1.00;;;;;;;;;;5322946;27;20423;-80
2022/06/28 13:13:34;;;;;;;2.47;0.60;;;;;;;;;;5305687;28;20027;-80
2022/06/28 13:16:06;;;;;;;3.58;0.88;;;;;;;;;;5311089;27;20056;-80
2022/06/28 13:18:37;;;;;;;2.72;0.80;;;;;;;;;;5328200;28;20070;-80
2022/06/28 13:21:08;;;;;;;2.53;0.70;;;;;;;;;;5328355;28;20020;-79
2022/06/28 13:23:40;;;;;;;2.53;0.50;;;;;;;;;;5309823;27;20029;-80
2022/06/28 13:26:11;;;;;;;4.67;0.90;;;;;;;;;;5323035;27;20107;-80
2022/06/28 13:28:42;;;;;;;2.95;0.73;;;;;;;;;;5307594;28;20287;-80
2022/06/28 13:31:13;;;;;;;3.80;0.80;;;;;;;;;;5289880;28;20021;-79
2022/06/28 13:33:45;;;;;;;3.70;0.75;;;;;;;;;;5309701;27;20036;-80
2022/06/28 13:36:16;;;;;;;6.32;0.90;;;;;;;;;;5321996;27;20042;-80
2022/06/28 13:38:47;;;;;;;3.65;0.90;;;;;;;;;;5313848;27;20035;-80
2022/06/28 13:41:18;;;;;;;3.57;0.70;;;;;;;;;;5306487;28;20082;-80
2022/06/28 13:43:50;;;;;;;1.87;0.80;;;;;;;;;;5286833;28;20507;-80
2022/06/28 13:46:21;;;;;;;1.87;0.70;;;;;;;;;;5287309;28;20024;-80
2022/06/28 13:48:52;;;;;;;1.70;0.70;;;;;;;;;;5301596;28;20028;-80
2022/06/28 13:51:24;;;;;;;5.63;1.00;;;;;;;;;;5327340;28;20067;-80
2022/06/28 13:53:55;;;;;;;3.07;0.90;;;;;;;;;;5325741;27;20048;-80
2022/06/28 13:56:26;;;;;;;3.23;0.77;;;;;;;;;;5327438;28;20028;-80
2022/06/28 13:58:57;;;;;;;2.60;0.80;;;;;;;;;;5325748;27;20020;-80
2022/06/28 14:01:28;;;;;;;3.77;1.03;;;;;;;;;;5327297;28;20016;-80
2022/06/28 14:04:00;;;;;;;2.23;0.90;;;;;;;;;;5290104;28;20033;-80
2022/06/28 14:06:31;;;;;;;4.23;0.90;;;;;;;;;;5287459;28;20485;-80
2022/06/28 14:09:02;;;;;;;2.90;0.80;;;;;;;;;;5325813;27;20286;-79
2022/06/28 14:11:33;;;;;;;4.20;0.80;;;;;;;;;;5305981;28;20472;-80
2022/06/28 14:14:04;;;;;;;3.47;0.80;;;;;;;;;;5304899;28;20036;-79
2022/06/28 14:16:36;;;;;;;3.30;0.70;;;;;;;;;;5287532;27;20357;-80
2022/06/28 14:19:07;;;;;;;2.97;0.77;;;;;;;;;;5330107;27;20036;-80
2022/06/28 14:21:38;;;;;;;1.80;0.80;;;;;;;;;;5308446;28;20448;-80
2022/06/28 14:24:10;;;;;;;2.17;1.03;;;;;;;;;;5322631;28;20118;-80
2022/06/28 14:26:41;;;;;;;4.13;1.00;;;;;;;;;;5304361;28;20020;-80
2022/06/28 14:29:13;;;;;;;3.43;0.77;;;;;;;;;;5295375;28;20035;-80
2022/06/28 14:31:44;;;;;;;4.63;0.80;;;;;;;;;;5287905;27;20025;-80
2022/06/28 14:34:15;;;;;;;4.00;0.90;;;;;;;;;;5321112;27;20040;-79
2022/06/28 14:36:47;;;;;;;4.03;1.05;;;;;;;;;;5326608;28;20023;-80
2022/06/28 14:39:18;;;;;;;3.10;1.00;;;;;;;;;;5312944;27;20058;-80
2022/06/28 14:41:49;;;;;;;1.27;0.77;;;;;;;;;;5310704;27;20246;-79
2022/06/28 14:44:20;;;;;;;2.00;0.83;;;;;;;;;;5347440;27;20035;-80
2022/06/28 14:46:52;;;;;;;5.17;1.13;;;;;;;;;;5348184;27;20080;-80
2022/06/28 14:49:23;;;;;;;2.53;1.00;;;;;;;;;;5320037;27;20050;-80
2022/06/28 14:51:54;;;;;;;1.87;0.70;;;;;;;;;;5287536;28;20075;-79
2022/06/28 14:54:26;;;;;;;2.47;0.93;;;;;;;;;;5304830;28;20628;-80
2022/06/28 14:56:57;;;;;;;2.00;0.90;;;;;;;;;;5295651;27;20308;-79
2022/06/28 14:59:28;;;;;;;3.00;0.82;;;;;;;;;;5321895;27;20415;-80
2022/06/28 15:02:00;;;;;;;3.57;0.90;;;;;;;;;;5324786;27;20044;-80
2022/06/28 15:04:31;;;;;;;2.50;1.08;;;;;;;;;;5309556;27;20655;-80
2022/06/28 15:07:03;;;;;;;3.20;1.57;;;;;;;;;;5304546;27;20120;-80
2022/06/28 15:09:35;;;;;;;2.65;0.93;;;;;;;;;;5302677;28;20389;-80
2022/06/28 15:12:06;;;;;;;4.47;0.90;;;;;;;;;;5324064;27;20111;-80
2022/06/28 15:14:38;;;;;;;3.20;1.05;;;;;;;;;;5323576;27;20058;-80
2022/06/28 15:17:09;;;;;;;5.73;1.00;;;;;;;;;;5325952;28;20024;-81
2022/06/28 15:19:40;;;;;;;3.35;0.82;;;;;;;;;;5326100;28;20035;-81
2022/06/28 15:30:53;;;;;;;4.95;1.00;;;;;;;;;;5318755;27;20032;-81
2022/06/28 15:33:27;;;;;;;1.88;0.80;;;;;;;;;;5306073;28;20032;-81